Isle of Rum, United Kingdom
Current Conditions -  °F | °C
As of 2:20 AM on Saturday 20 Dec 2014 (Local Time) from EGPL Reporting Station
Scattered Clouds Scattered Clouds  
Wind Chill:   Ceiling: Unl
Heat Index:   Visibility: 6mi
Dew Point:   Wind: 29mph
Humidity: 87%   Direction: 310°NW
Pressure: 29.83"   Gusts: NA
Location:  57.01°N, 6.28°W
Report Text: EGPL 200220Z AUTO 31025KT 9000 SCT043/// 06/04 Q1010
Loading
Personal Weather Stations






























Interactive Weather Map New forecast layout! Learn more

10-Day Weather Forecast

Advertisements
Track Severe Weather on mobile